Time;durP1;ratioP1;P1;durP2;ratioP2;P2;SDS_P1;SDS_P2;PMS_P1;PMS_P2;Temp;Humidity;BMP_temperature;BMP_pressure;BME280_temperature;BME280_humidity;BME280_pressure;Samples;Min_cycle;Max_cycle;Signal;HPM_P1;HPM_P2
2022/08/27 00:02:10;;;;;;;7.07;3.10;;;;;;;16.22;80.69;101604.75;5040025;28;20495;-83
2022/08/27 00:04:36;;;;;;;7.20;2.90;;;;;;;16.10;81.13;101602.00;5041647;28;20816;-82
2022/08/27 00:07:02;;;;;;;7.47;2.73;;;;;;;16.02;82.14;101603.13;5041162;28;20127;-84
2022/08/27 00:09:28;;;;;;;7.07;3.00;;;;;;;15.97;81.33;101600.25;5022976;28;20029;-84
2022/08/27 00:11:56;;;;;;;10.20;3.00;;;;;;;15.91;83.18;101601.19;5039675;28;20097;-84
2022/08/27 00:14:21;;;;;;;9.00;2.93;;;;;;;15.91;81.93;101601.19;5040708;28;20090;-83
2022/08/27 00:16:47;;;;;;;5.83;2.73;;;;;;;15.88;81.23;101595.31;5023047;28;20127;-83
2022/08/27 00:19:12;;;;;;;8.20;3.07;;;;;;;15.83;81.53;101590.56;5040995;28;20052;-82
2022/08/27 00:21:38;;;;;;;7.20;3.03;;;;;;;15.74;82.29;101589.16;5041206;28;20520;-83
2022/08/27 00:24:03;;;;;;;7.97;2.97;;;;;;;15.72;83.61;101589.38;5040708;28;20117;-83
2022/08/27 00:26:29;;;;;;;9.20;3.47;;;;;;;15.70;83.65;101592.31;5040881;28;20037;-83
2022/08/27 00:28:54;;;;;;;7.63;3.30;;;;;;;15.77;83.71;101594.16;5024936;28;20033;-83
2022/08/27 00:31:20;;;;;;;5.13;3.27;;;;;;;15.72;83.70;101591.28;5045323;28;20102;-83
2022/08/27 00:33:45;;;;;;;7.63;3.33;;;;;;;15.71;83.15;101587.72;5045166;28;20090;-82
2022/08/27 00:36:12;;;;;;;5.97;3.10;;;;;;;15.63;83.94;101593.47;5043041;28;20155;-82
2022/08/27 00:38:40;;;;;;;7.00;3.73;;;;;;;15.53;84.54;101583.91;5043039;28;20132;-82
2022/08/27 00:41:08;;;;;;;9.17;4.00;;;;;;;15.49;85.25;101587.31;5044642;28;20036;-83
2022/08/27 00:43:56;;;;;;;6.50;4.00;;;;;;;15.48;85.79;101596.59;5044165;28;20040;-82
2022/08/27 00:46:25;;;;;;;8.33;4.60;;;;;;;15.41;86.52;101591.19;5043993;28;20041;-83
2022/08/27 00:48:54;;;;;;;6.83;4.47;;;;;;;15.33;87.54;101586.84;5042765;28;20404;-83
2022/08/27 00:51:20;;;;;;;8.77;4.47;;;;;;;15.33;87.27;101591.47;5044140;28;20044;-82
2022/08/27 00:53:48;;;;;;;8.47;4.40;;;;;;;15.29;87.52;101593.81;5026466;28;20032;-82
2022/08/27 00:56:28;;;;;;;8.83;4.40;;;;;;;15.26;87.92;101594.28;5044492;28;20052;-82
2022/08/27 00:58:55;;;;;;;10.47;4.50;;;;;;;15.25;87.75;101589.88;5026529;28;20041;-82
2022/08/27 01:01:25;;;;;;;7.13;4.20;;;;;;;15.15;88.34;101595.00;5026811;28;20029;-83
2022/08/27 01:03:55;;;;;;;10.40;4.33;;;;;;;15.13;88.87;101600.69;5043621;28;20440;-82
2022/08/27 01:06:22;;;;;;;8.30;4.40;;;;;;;15.05;88.96;101586.50;5044171;28;20608;-83
2022/08/27 01:08:56;;;;;;;7.47;4.57;;;;;;;15.07;89.19;101587.94;5044367;28;20866;-83
2022/08/27 01:11:23;;;;;;;8.93;4.18;;;;;;;15.06;88.82;101589.00;5043791;28;20167;-83
2022/08/27 01:13:50;;;;;;;9.40;4.60;;;;;;;15.07;89.40;101589.81;5042868;28;20068;-83
2022/08/27 01:16:20;;;;;;;6.17;4.30;;;;;;;15.03;90.24;101593.00;5043771;28;20037;-83
2022/08/27 01:18:46;;;;;;;10.40;4.53;;;;;;;14.93;89.88;101584.50;5043105;28;20047;-83
2022/08/27 01:21:11;;;;;;;8.70;4.70;;;;;;;14.88;90.43;101580.75;5044308;28;20408;-83
2022/08/27 01:23:44;;;;;;;8.00;4.90;;;;;;;14.89;90.35;101583.28;5043388;28;20068;-83
2022/08/27 01:26:13;;;;;;;10.53;5.70;;;;;;;14.84;90.85;101592.13;5043509;28;20044;-82
2022/08/27 01:28:39;;;;;;;6.90;4.67;;;;;;;14.78;91.38;101586.72;5043415;28;20048;-83
2022/08/27 01:31:06;;;;;;;10.07;5.27;;;;;;;14.72;91.59;101577.53;5044407;28;20467;-83
2022/08/27 01:33:32;;;;;;;10.60;5.30;;;;;;;14.74;91.74;101580.03;5042877;28;20291;-83
2022/08/27 01:35:57;;;;;;;7.10;5.27;;;;;;;14.68;92.18;101579.03;5043472;28;20789;-84
2022/08/27 01:38:23;;;;;;;8.23;5.27;;;;;;;14.66;92.48;101578.41;5043486;28;20044;-83
2022/08/27 01:40:49;;;;;;;8.50;4.90;;;;;;;14.58;92.44;101576.75;5042146;28;20497;-83
2022/08/27 01:43:15;;;;;;;9.37;5.47;;;;;;;14.61;92.90;101576.31;5043247;28;20068;-83
2022/08/27 01:45:47;;;;;;;8.60;5.50;;;;;;;14.60;93.24;101582.00;5044289;28;20040;-84
2022/08/27 01:48:13;;;;;;;9.73;5.50;;;;;;;14.59;93.77;101578.44;5042998;28;20036;-83
2022/08/27 01:50:40;;;;;;;10.67;5.07;;;;;;;14.55;93.43;101571.75;5025046;28;21348;-83
2022/08/27 01:53:12;;;;;;;10.17;5.23;;;;;;;14.52;93.80;101577.63;5043058;28;20079;-83
2022/08/27 01:55:39;;;;;;;7.47;5.70;;;;;;;14.48;93.69;101577.25;5042931;28;20476;-83
2022/08/27 01:58:05;;;;;;;12.17;5.67;;;;;;;14.45;94.31;101574.13;5042953;28;20040;-82
2022/08/27 02:00:35;;;;;;;7.50;5.30;;;;;;;14.53;94.35;101584.75;5042847;28;20040;-83
2022/08/27 02:03:01;;;;;;;9.27;5.80;;;;;;;14.49;94.44;101572.63;5040725;28;20071;-83
2022/08/27 02:05:42;;;;;;;8.47;5.50;;;;;;;14.45;94.70;101568.66;5043283;28;21752;-83
2022/08/27 02:08:07;;;;;;;7.07;5.30;;;;;;;14.46;94.47;101567.63;5019765;28;20598;-83
2022/08/27 02:10:36;;;;;;;9.30;5.47;;;;;;;14.43;94.47;101570.75;5024340;28;20100;-84
2022/08/27 02:13:03;;;;;;;6.43;5.07;;;;;;;14.38;94.57;101568.72;5042422;28;20159;-82
2022/08/27 02:15:28;;;;;;;8.63;5.47;;;;;;;14.40;94.91;101565.75;5042648;28;20085;-83
2022/08/27 02:17:54;;;;;;;10.57;5.00;;;;;;;14.38;94.87;101565.16;5042973;28;20114;-83
2022/08/27 02:20:21;;;;;;;12.33;5.90;;;;;;;14.29;95.21;101572.75;5042628;28;20040;-83
2022/08/27 02:22:48;;;;;;;7.77;5.33;;;;;;;14.31;95.19;101570.66;5042560;28;20037;-83
2022/08/27 02:25:15;;;;;;;10.57;5.60;;;;;;;14.29;94.91;101565.44;5042022;28;20064;-83
2022/08/27 02:27:41;;;;;;;8.07;5.67;;;;;;;14.30;95.03;101571.69;5042810;28;20037;-83
2022/08/27 02:30:10;;;;;;;10.10;5.50;;;;;;;14.25;95.12;101568.78;5042069;28;20120;-84
2022/08/27 02:32:35;;;;;;;11.20;5.77;;;;;;;14.24;95.27;101565.25;5042314;28;20155;-83
2022/08/27 02:35:02;;;;;;;8.73;5.37;;;;;;;14.21;95.61;101568.41;5041189;28;20496;-83
2022/08/27 02:37:27;;;;;;;8.47;5.07;;;;;;;14.17;95.53;101559.81;5043062;28;20503;-83
2022/08/27 02:39:53;;;;;;;8.93;5.90;;;;;;;14.13;95.67;101557.72;5042578;28;20045;-83
2022/08/27 02:42:18;;;;;;;8.20;5.60;;;;;;;14.13;96.12;101552.28;5041829;28;20473;-83
2022/08/27 02:44:44;;;;;;;9.30;5.43;;;;;;;13.99;96.31;101555.09;5042564;28;20087;-83
2022/08/27 02:47:10;;;;;;;7.37;5.80;;;;;;;13.96;96.93;101554.69;5006659;28;20040;-83
2022/08/27 02:49:36;;;;;;;9.10;5.83;;;;;;;13.95;96.93;101551.16;5040382;28;20037;-83
2022/08/27 02:52:02;;;;;;;9.37;5.60;;;;;;;13.91;97.10;101555.34;5024195;28;20393;-83
2022/08/27 02:54:28;;;;;;;10.40;5.57;;;;;;;13.87;97.26;101556.84;5041972;28;20036;-83
2022/08/27 02:56:54;;;;;;;9.30;5.83;;;;;;;13.88;97.58;101555.78;5042141;28;20041;-83
2022/08/27 02:59:20;;;;;;;10.10;5.77;;;;;;;13.84;97.70;101555.38;5041336;28;20432;-83
2022/08/27 03:01:46;;;;;;;8.90;5.77;;;;;;;13.85;97.48;101557.03;5042038;28;20047;-83
2022/08/27 03:04:11;;;;;;;11.33;5.90;;;;;;;13.80;97.47;101558.75;5022934;28;20041;-83
2022/08/27 03:06:37;;;;;;;9.50;5.63;;;;;;;13.79;97.47;101552.47;5041605;28;20091;-83
2022/08/27 03:09:03;;;;;;;9.57;5.57;;;;;;;13.79;97.55;101555.19;5040975;28;20365;-83
2022/08/27 03:11:28;;;;;;;8.63;5.40;;;;;;;13.75;97.74;101553.94;5024348;28;20100;-83
2022/08/27 03:13:53;;;;;;;10.33;5.83;;;;;;;13.79;98.10;101559.78;5040051;28;20041;-83
2022/08/27 03:16:20;;;;;;;9.97;6.03;;;;;;;13.75;98.38;101555.81;5010932;28;20036;-83
2022/08/27 03:18:45;;;;;;;7.23;5.70;;;;;;;13.68;98.82;101551.25;5042070;28;20488;-84
2022/08/27 03:21:19;;;;;;;8.37;5.90;;;;;;;13.77;99.49;101564.63;5009310;28;20036;-83
2022/08/27 03:23:47;;;;;;;10.38;5.88;;;;;;;13.78;99.01;101555.41;5033604;28;20052;-83
2022/08/27 03:26:13;;;;;;;8.13;6.00;;;;;;;13.85;99.51;101558.94;5042061;28;20043;-83
2022/08/27 03:28:39;;;;;;;9.50;6.30;;;;;;;13.86;99.55;101563.34;5041997;28;20045;-83
2022/08/27 03:31:11;;;;;;;9.93;6.23;;;;;;;13.83;100.00;101559.16;5042305;28;20287;-84
2022/08/27 03:33:38;;;;;;;10.10;7.07;;;;;;;13.90;100.00;101567.31;5041511;28;21353;-83
2022/08/27 03:36:06;;;;;;;12.43;7.43;;;;;;;13.85;100.00;101557.03;5041449;28;20032;-83
2022/08/27 03:38:44;;;;;;;11.57;7.00;;;;;;;13.87;100.00;101565.00;5041442;28;20645;-83
2022/08/27 03:41:09;;;;;;;11.37;6.80;;;;;;;13.82;100.00;101560.19;5041835;28;20124;-83
2022/08/27 03:43:34;;;;;;;10.63;6.90;;;;;;;13.96;100.00;101560.97;5041465;28;20041;-83
2022/08/27 03:46:00;;;;;;;14.07;7.20;;;;;;;13.97;100.00;101565.38;5041387;28;20078;-83
2022/08/27 03:48:26;;;;;;;10.77;7.23;;;;;;;13.96;100.00;101568.31;5041918;28;20048;-83
2022/08/27 03:50:52;;;;;;;12.57;7.57;;;;;;;13.90;100.00;101564.56;5041409;28;20032;-84
2022/08/27 03:53:19;;;;;;;13.23;7.50;;;;;;;13.93;100.00;101564.13;5041473;28;20051;-83
2022/08/27 03:55:45;;;;;;;11.93;7.30;;;;;;;13.93;100.00;101564.13;5041070;28;20092;-83
2022/08/27 03:58:11;;;;;;;11.93;7.63;;;;;;;13.99;100.00;101573.31;5041837;28;20041;-83
2022/08/27 04:00:38;;;;;;;12.00;7.80;;;;;;;13.93;100.00;101563.31;5022599;28;20037;-84
2022/08/27 04:03:04;;;;;;;11.57;7.33;;;;;;;13.98;100.00;101566.19;5042817;28;20044;-84
2022/08/27 04:05:33;;;;;;;11.50;7.30;;;;;;;14.02;100.00;101568.28;5044962;28;20570;-83
2022/08/27 04:07:59;;;;;;;9.03;6.70;;;;;;;14.02;100.00;101560.13;5045545;28;20155;-83
2022/08/27 04:10:26;;;;;;;12.17;6.50;;;;;;;14.07;100.00;101564.06;5044459;28;20032;-83
2022/08/27 04:12:52;;;;;;;9.00;6.57;;;;;;;14.04;100.00;101559.88;5028190;28;20150;-84
2022/08/27 04:15:17;;;;;;;9.23;6.50;;;;;;;14.05;100.00;101561.56;5044480;28;20431;-83
2022/08/27 04:18:01;;;;;;;11.43;6.40;;;;;;;14.02;100.00;101562.84;5045710;28;20077;-83
2022/08/27 04:20:27;;;;;;;10.17;6.10;;;;;;;13.96;100.00;101558.25;5045918;28;20775;-82
2022/08/27 04:22:52;;;;;;;10.73;6.60;;;;;;;13.94;100.00;101554.06;5044114;28;20136;-83
2022/08/27 04:25:18;;;;;;;10.03;6.33;;;;;;;13.90;100.00;101558.28;5044691;28;20039;-83
2022/08/27 04:27:43;;;;;;;13.10;6.40;;;;;;;13.89;100.00;101562.91;5045338;28;20071;-83
2022/08/27 04:30:09;;;;;;;10.40;6.23;;;;;;;13.82;100.00;101559.38;5045038;28;20032;-83
2022/08/27 04:32:35;;;;;;;8.83;5.97;;;;;;;13.78;99.85;101561.69;5010925;28;20044;-83
2022/08/27 04:35:01;;;;;;;9.13;5.60;;;;;;;13.79;99.79;101560.63;5044854;28;20037;-83
2022/08/27 04:37:31;;;;;;;9.47;6.10;;;;;;;13.77;99.88;101561.91;5045057;28;20103;-83
2022/08/27 04:39:57;;;;;;;9.43;6.27;;;;;;;13.73;100.00;101569.66;5044622;28;20468;-83
2022/08/27 04:42:23;;;;;;;7.60;6.10;;;;;;;13.76;100.00;101568.41;5044842;28;20033;-84
2022/08/27 04:44:49;;;;;;;10.30;6.13;;;;;;;13.75;100.00;101575.75;5043939;28;20040;-83
2022/08/27 04:47:15;;;;;;;7.93;6.30;;;;;;;13.70;100.00;101574.72;5025156;28;20060;-82
2022/08/27 04:49:41;;;;;;;8.80;6.57;;;;;;;13.74;100.00;101576.78;5044868;28;20602;-83
2022/08/27 04:52:07;;;;;;;9.93;6.83;;;;;;;13.66;100.00;101572.41;5026409;28;20163;-83
2022/08/27 04:54:33;;;;;;;9.43;6.97;;;;;;;13.72;100.00;101576.19;5045222;28;20036;-83
2022/08/27 04:57:00;;;;;;;11.83;7.00;;;;;;;13.73;100.00;101582.44;5044403;28;20406;-82
2022/08/27 04:59:25;;;;;;;11.47;7.17;;;;;;;13.70;100.00;101570.09;5026610;28;20036;-82
2022/08/27 05:01:51;;;;;;;9.97;6.80;;;;;;;13.75;100.00;101577.59;5043905;28;20048;-83
2022/08/27 05:04:17;;;;;;;11.47;7.07;;;;;;;13.80;100.00;101577.81;5043753;28;20044;-83
2022/08/27 05:06:44;;;;;;;11.87;7.40;;;;;;;13.83;100.00;101580.09;5037654;28;20038;-83
2022/08/27 05:09:11;;;;;;;10.50;6.93;;;;;;;13.86;100.00;101574.22;5045205;28;20779;-83
2022/08/27 05:11:37;;;;;;;8.60;6.87;;;;;;;13.84;100.00;101568.16;5044285;28;20381;-83
2022/08/27 05:14:07;;;;;;;12.17;7.07;;;;;;;13.92;100.00;101578.78;5026147;28;20083;-83
2022/08/27 05:16:35;;;;;;;9.90;7.10;;;;;;;13.96;100.00;101579.22;5043623;28;20401;-83
2022/08/27 05:19:01;;;;;;;12.67;7.07;;;;;;;13.95;100.00;101572.94;5043954;28;20041;-82
2022/08/27 05:21:32;;;;;;;12.60;7.10;;;;;;;13.99;100.00;101573.31;5043081;28;20037;-83
2022/08/27 05:24:00;;;;;;;12.87;7.53;;;;;;;14.04;100.00;101584.41;5043830;28;20044;-83
2022/08/27 05:26:27;;;;;;;11.07;7.20;;;;;;;14.09;100.00;101584.59;5042423;28;20134;-84
2022/08/27 05:28:53;;;;;;;12.07;7.20;;;;;;;14.14;100.00;101576.63;5045355;28;20366;-83
2022/08/27 05:31:19;;;;;;;13.73;7.23;;;;;;;14.23;100.00;101582.63;5005951;28;20044;-83
2022/08/27 05:33:46;;;;;;;11.00;7.00;;;;;;;14.39;100.00;101583.16;5043770;28;20033;-83
2022/08/27 05:36:25;;;;;;;9.20;7.33;;;;;;;14.43;100.00;101587.13;5025267;28;20029;-83
2022/08/27 05:38:51;;;;;;;13.50;7.50;;;;;;;14.49;100.00;101588.97;5017988;28;20036;-83
2022/08/27 05:41:20;;;;;;;10.13;7.50;;;;;;;14.55;100.00;101590.84;5024455;28;20044;-83
2022/08/27 05:43:46;;;;;;;12.80;7.10;;;;;;;14.53;100.00;101584.75;5044330;28;20037;-85
2022/08/27 05:46:14;;;;;;;12.97;7.80;;;;;;;14.57;100.00;101586.00;5043094;28;20947;-84
2022/08/27 05:49:00;;;;;;;10.43;7.10;;;;;;;14.64;100.00;101594.16;5043616;28;20174;-83
2022/08/27 05:51:29;;;;;;;11.90;7.67;;;;;;;14.68;100.00;101592.66;5043182;28;20039;-83
2022/08/27 05:54:13;;;;;;;9.83;7.73;;;;;;;14.73;100.00;101590.13;5043898;28;20045;-83
2022/08/27 05:56:40;;;;;;;15.65;7.70;;;;;;;14.76;100.00;101589.66;5043156;28;20673;-83
2022/08/27 06:01:52;;;;;;;12.25;7.20;;;;;;;14.88;100.00;101587.06;5042851;28;20694;-83
2022/08/27 06:04:19;;;;;;;10.77;7.20;;;;;;;14.94;100.00;101591.59;5043117;28;20047;-84
2022/08/27 06:06:44;;;;;;;10.73;7.10;;;;;;;15.02;100.00;101594.06;5011085;28;20420;-83
2022/08/27 06:09:12;;;;;;;12.53;8.17;;;;;;;15.07;100.00;101596.13;5043436;28;20044;-83
2022/08/27 06:11:38;;;;;;;13.27;7.17;;;;;;;15.12;100.00;101590.84;5025252;28;20040;-84
2022/08/27 06:14:04;;;;;;;10.30;7.27;;;;;;;15.24;100.00;101601.84;5042644;28;20581;-83
2022/08/27 06:16:30;;;;;;;11.47;6.93;;;;;;;15.26;100.00;101594.28;5042556;28;20408;-83
2022/08/27 06:18:56;;;;;;;12.27;7.53;;;;;;;15.33;100.00;101599.69;5043634;28;20044;-83
2022/08/27 06:21:22;;;;;;;13.17;7.60;;;;;;;15.35;100.00;101595.66;5041272;28;20072;-83
2022/08/27 06:23:48;;;;;;;12.40;7.43;;;;;;;15.40;100.00;101600.44;5042538;28;20036;-83
2022/08/27 06:26:16;;;;;;;12.03;7.73;;;;;;;15.46;100.00;101599.53;5042029;28;20098;-83
2022/08/27 06:28:42;;;;;;;12.73;7.80;;;;;;;15.51;100.00;101601.59;5043119;28;20045;-83
2022/08/27 06:31:19;;;;;;;13.17;8.07;;;;;;;15.58;100.00;101596.06;5041755;28;20070;-83
2022/08/27 06:33:46;;;;;;;12.03;7.90;;;;;;;15.61;100.00;101593.72;5042564;28;20120;-84
2022/08/27 06:36:15;;;;;;;13.93;7.70;;;;;;;15.67;100.00;101595.53;5041681;28;20045;-82
2022/08/27 06:38:43;;;;;;;13.60;7.40;;;;;;;15.70;99.62;101597.78;5041703;28;20037;-83
2022/08/27 06:41:11;;;;;;;13.20;7.30;;;;;;;15.73;100.00;101601.97;5042704;28;20110;-83
2022/08/27 06:43:39;;;;;;;13.67;7.23;;;;;;;15.77;98.94;101600.44;5024923;28;20037;-83
2022/08/27 06:46:07;;;;;;;11.70;6.93;;;;;;;15.86;99.44;101606.50;5041915;28;20135;-83
2022/08/27 06:48:33;;;;;;;11.80;7.00;;;;;;;15.87;98.46;101602.69;5042943;28;20025;-82
2022/08/27 06:50:59;;;;;;;16.13;6.80;;;;;;;15.95;98.43;101599.66;5041793;28;20056;-82
2022/08/27 06:53:25;;;;;;;11.97;6.90;;;;;;;15.97;98.60;101602.97;5041391;28;20064;-84
2022/08/27 06:55:50;;;;;;;11.90;6.07;;;;;;;15.98;97.01;101604.66;5042193;28;20061;-83
2022/08/27 06:58:17;;;;;;;11.30;6.20;;;;;;;16.04;96.78;101603.72;5042090;28;20533;-83
2022/08/27 07:00:43;;;;;;;13.07;6.80;;;;;;;16.10;96.10;101602.00;5042087;28;20029;-83
2022/08/27 07:03:09;;;;;;;12.57;6.87;;;;;;;16.16;95.73;101601.03;5023821;28;20611;-83
2022/08/27 07:05:36;;;;;;;11.77;6.80;;;;;;;16.26;96.09;101584.09;5041750;28;20114;-82
2022/08/27 07:08:02;;;;;;;14.37;6.73;;;;;;;16.39;95.55;101604.94;5042189;28;20040;-84
2022/08/27 07:10:29;;;;;;;12.60;6.93;;;;;;;16.35;94.11;101601.84;5042087;28;20060;-84
2022/08/27 07:12:54;;;;;;;14.53;7.17;;;;;;;16.47;95.16;101609.25;5042258;28;20033;-83
2022/08/27 07:15:20;;;;;;;14.00;7.80;;;;;;;16.48;93.82;101606.31;5041286;28;20072;-84
2022/08/27 07:17:46;;;;;;;14.77;6.87;;;;;;;16.58;93.08;101610.34;5040562;28;20203;-83
2022/08/27 07:20:12;;;;;;;13.00;7.10;;;;;;;16.65;93.63;101614.66;5040156;28;20376;-83
2022/08/27 07:22:39;;;;;;;12.50;7.20;;;;;;;16.69;93.26;101615.84;5041622;28;20673;-83
2022/08/27 07:25:07;;;;;;;14.10;7.27;;;;;;;16.79;93.03;101622.66;5042234;28;20040;-83
2022/08/27 07:27:33;;;;;;;12.03;7.20;;;;;;;16.83;91.11;101623.88;5041872;28;20037;-83
2022/08/27 07:29:58;;;;;;;11.87;7.30;;;;;;;16.99;91.41;101622.38;5041217;28;20105;-83
2022/08/27 07:32:24;;;;;;;10.53;7.37;;;;;;;17.03;90.46;101623.59;5040835;28;20033;-83
2022/08/27 07:34:49;;;;;;;14.20;7.17;;;;;;;17.14;90.68;101627.41;5041340;28;20043;-84
2022/08/27 07:37:15;;;;;;;12.40;6.87;;;;;;;17.14;88.46;101630.16;5041574;28;20132;-83
2022/08/27 07:39:40;;;;;;;10.83;6.37;;;;;;;17.20;87.02;101624.56;5041907;28;20538;-83
2022/08/27 07:44:49;;;;;;;10.98;5.10;;;;;;;17.26;81.44;101628.25;5042156;28;20507;-85
2022/08/27 07:47:15;;;;;;;7.70;5.10;;;;;;;17.18;80.08;101623.13;5041176;28;20112;-83
2022/08/27 07:50:06;;;;;;;12.07;4.70;;;;;;;17.28;80.91;101628.81;5040785;28;20610;-84
2022/08/27 07:52:33;;;;;;;9.17;4.57;;;;;;;17.50;80.43;101622.75;5040257;28;20029;-84
2022/08/27 07:54:58;;;;;;;10.77;4.90;;;;;;;17.81;79.25;101626.16;5041347;28;20737;-83
2022/08/27 07:57:24;;;;;;;10.07;3.93;;;;;;;17.98;77.70;101631.78;5022318;28;20029;-85
2022/08/27 07:59:51;;;;;;;9.00;4.15;;;;;;;18.16;76.14;101626.09;5023159;28;20454;-84
2022/08/27 08:02:17;;;;;;;7.93;3.83;;;;;;;18.26;72.89;101630.94;5039655;28;20053;-83
2022/08/27 08:04:43;;;;;;;8.87;3.60;;;;;;;18.45;73.77;101623.34;5024517;28;20111;-86
2022/08/27 08:07:08;;;;;;;7.15;3.75;;;;;;;18.75;74.14;101633.22;5040803;28;20116;-85
2022/08/27 08:09:33;;;;;;;7.20;3.47;;;;;;;18.90;73.33;101627.19;5041396;28;20047;-84
2022/08/27 08:12:02;;;;;;;6.35;2.90;;;;;;;18.94;71.05;101627.53;5040074;28;20619;-83
2022/08/27 08:14:30;;;;;;;5.15;3.00;;;;;;;19.01;69.42;101628.19;5040531;28;20041;-85
2022/08/27 08:17:04;;;;;;;5.35;2.58;;;;;;;19.00;66.58;101629.31;5040655;28;20041;-87
2022/08/27 08:19:31;;;;;;;5.53;2.87;;;;;;;19.00;67.26;101624.63;5025894;28;20052;-84
2022/08/27 08:21:57;;;;;;;5.63;2.60;;;;;;;19.17;66.91;101629.28;5040495;28;20493;-86
2022/08/27 08:24:22;;;;;;;5.38;2.40;;;;;;;19.07;65.34;101629.97;5041374;28;20622;-83
2022/08/27 08:26:49;;;;;;;4.97;2.38;;;;;;;19.10;65.22;101623.97;5040680;28;20393;-85
2022/08/27 08:29:14;;;;;;;4.90;2.35;;;;;;;19.23;66.59;101631.03;5041087;28;20123;-83
2022/08/27 08:31:40;;;;;;;5.53;2.42;;;;;;;19.49;64.67;101632.25;5038949;28;20040;-85
2022/08/27 08:34:06;;;;;;;6.28;2.50;;;;;;;19.87;64.45;101632.53;5039500;28;20032;-89
2022/08/27 08:36:32;;;;;;;8.43;2.50;;;;;;;19.86;63.10;101631.69;5040177;28;20119;-86
2022/08/27 08:38:57;;;;;;;5.68;2.35;;;;;;;19.83;62.79;101636.88;5041099;28;20170;-84
2022/08/27 08:41:37;;;;;;;6.85;2.65;;;;;;;19.77;62.33;101640.59;5022433;28;20672;-85
2022/08/27 08:44:13;;;;;;;8.75;2.60;;;;;;;19.89;62.03;101635.84;5040467;28;20036;-86
2022/08/27 08:46:46;;;;;;;6.30;2.42;;;;;;;20.02;63.08;101640.97;5040890;28;20047;-85
2022/08/27 08:49:39;;;;;;;4.88;2.30;;;;;;;19.95;60.73;101633.97;5041645;28;20152;-90
2022/08/27 08:52:32;;;;;;;5.90;2.45;;;;;;;20.34;60.92;101636.63;5044162;28;20079;-86
2022/08/27 08:55:20;;;;;;;4.90;2.47;;;;;;;20.57;60.86;101636.31;5044075;28;20575;-86
2022/08/27 08:58:10;;;;;;;5.70;2.30;;;;;;;20.40;60.19;101632.88;5036877;28;20132;-88
2022/08/27 09:00:38;;;;;;;6.55;2.30;;;;;;;20.33;61.55;101635.81;5044212;28;20047;-85
2022/08/27 09:03:03;;;;;;;5.72;2.25;;;;;;;20.37;60.14;101639.72;5044055;28;20036;-84
2022/08/27 09:05:29;;;;;;;6.18;2.30;;;;;;;20.49;59.31;101639.56;5044544;28;20036;-86
2022/08/27 09:08:17;;;;;;;3.90;2.20;;;;;;;20.41;60.57;101638.13;5026717;28;20032;-86
2022/08/27 09:11:19;;;;;;;5.57;2.00;;;;;;;20.29;59.60;101650.34;5044427;28;20043;-86
2022/08/27 09:13:51;;;;;;;5.07;2.40;;;;;;;20.34;60.46;101648.47;5044230;28;20729;-85
2022/08/27 09:16:17;;;;;;;5.63;2.10;;;;;;;20.21;61.67;101646.97;5043762;28;20036;-84
2022/08/27 09:18:44;;;;;;;7.18;2.45;;;;;;;20.09;61.20;101651.78;5044472;28;20139;-87
2022/08/27 09:21:24;;;;;;;4.82;2.20;;;;;;;20.27;61.44;101653.34;5044279;28;20041;-83
2022/08/27 09:24:07;;;;;;;5.68;2.50;;;;;;;20.20;61.20;101647.22;5043702;28;20149;-86
2022/08/27 09:26:38;;;;;;;6.60;2.60;;;;;;;20.03;61.40;101661.88;5044691;28;20036;-85
2022/08/27 09:29:15;;;;;;;5.10;2.20;;;;;;;20.05;60.48;101651.44;5025259;28;20098;-87
2022/08/27 09:31:52;;;;;;;5.20;2.40;;;;;;;20.24;60.32;101648.38;5043094;28;20432;-84
2022/08/27 09:34:18;;;;;;;6.05;2.45;;;;;;;20.71;61.09;101647.81;5043678;28;20024;-85
2022/08/27 09:37:15;;;;;;;6.03;2.45;;;;;;;21.21;58.07;101644.91;5043839;28;20045;-85
2022/08/27 09:39:47;;;;;;;4.53;1.85;;;;;;;21.36;57.09;101656.03;5033945;28;20503;-85
2022/08/27 09:42:29;;;;;;;5.80;2.17;;;;;;;21.35;55.27;101648.88;5043118;28;20036;-83
2022/08/27 09:44:56;;;;;;;3.47;2.00;;;;;;;21.38;53.91;101648.34;5026262;28;20032;-82
2022/08/27 09:47:22;;;;;;;4.00;2.10;;;;;;;21.65;55.16;101639.16;5043149;28;20685;-88
2022/08/27 09:50:01;;;;;;;7.15;1.90;;;;;;;21.89;54.98;101641.47;5042937;28;20037;-90
2022/08/27 09:52:47;;;;;;;3.97;2.15;;;;;;;21.84;54.51;101647.81;5043425;28;20037;-86
2022/08/27 09:55:29;;;;;;;4.65;2.00;;;;;;;21.94;54.54;101644.28;5043320;28;20037;-89
2022/08/27 09:57:55;;;;;;;4.38;1.77;;;;;;;22.22;53.48;101655.94;5042953;28;20521;-86
2022/08/27 10:00:31;;;;;;;6.07;2.05;;;;;;;22.47;53.01;101652.47;5042259;28;20041;-84
2022/08/27 10:03:00;;;;;;;4.95;2.00;;;;;;;22.52;51.28;101648.88;5042996;28;20118;-84
2022/08/27 10:05:31;;;;;;;4.53;2.00;;;;;;;22.31;51.09;101654.34;5043090;28;20412;-85
2022/08/27 10:08:56;;;;;;;4.78;1.70;;;;;;;22.38;52.39;101646.63;5042495;28;20036;-85
2022/08/27 10:11:29;;;;;;;;;;;;;;;22.66;51.16;101647.25;4966620;28;20083;-86
2022/08/27 10:14:12;;;;;;;3.43;1.80;;;;;;;22.37;51.16;101647.78;5042810;28;19923;-84
2022/08/27 10:16:51;;;;;;;4.28;2.10;;;;;;;22.86;50.24;101638.19;5043472;28;20041;-84
2022/08/27 10:19:38;;;;;;;3.17;1.67;;;;;;;22.75;50.86;101637.34;5041804;28;20473;-85
2022/08/27 10:22:03;;;;;;;4.57;1.80;;;;;;;22.64;51.42;101632.88;5041900;28;20033;-85
2022/08/27 10:24:35;;;;;;;2.35;1.50;;;;;;;22.84;51.00;101636.78;5025017;28;20041;-84
2022/08/27 10:27:08;;;;;;;4.28;1.90;;;;;;;23.19;49.70;101635.97;5042655;28;20040;-90
2022/08/27 10:29:49;;;;;;;6.60;1.80;;;;;;;23.17;49.07;101642.88;5041821;28;20128;-86
2022/08/27 10:32:36;;;;;;;3.00;1.70;;;;;;;23.01;48.65;101636.50;5043546;28;20173;-87
2022/08/27 10:35:17;;;;;;;4.65;1.70;;;;;;;22.41;49.94;101643.34;5042382;28;20039;-87
2022/08/27 10:38:17;;;;;;;5.22;1.50;;;;;;;22.39;51.23;101642.78;5042172;28;20029;-88
2022/08/27 10:40:57;;;;;;;4.10;1.70;;;;;;;22.30;52.15;101641.63;5042308;28;20037;-87
2022/08/27 10:43:56;;;;;;;3.70;1.80;;;;;;;22.69;52.57;101630.13;5042007;28;20033;-85
2022/08/27 10:46:27;;;;;;;5.57;1.73;;;;;;;22.35;52.64;101641.66;5042223;28;20037;-86
2022/08/27 10:48:58;;;;;;;2.97;1.70;;;;;;;22.29;50.27;101642.75;5041808;28;20037;-87
2022/08/27 10:51:39;;;;;;;3.88;1.73;;;;;;;22.27;51.04;101633.91;5042048;28;20518;-90
2022/08/27 10:54:33;;;;;;;2.88;1.70;;;;;;;22.14;52.54;101645.44;5042195;28;20086;-84
2022/08/27 10:57:26;;;;;;;4.93;1.90;;;;;;;22.14;52.22;101635.25;4999327;28;20067;-82
2022/08/27 11:00:17;;;;;;;2.58;1.80;;;;;;;22.04;51.76;101627.75;5041429;28;20056;-87
2022/08/27 11:02:54;;;;;;;2.38;1.50;;;;;;;21.88;50.99;101634.28;5041555;28;20032;-87
2022/08/27 11:05:19;;;;;;;8.63;2.22;;;;;;;21.62;52.16;101628.66;5041989;28;20054;-85
2022/08/27 11:08:05;;;;;;;5.78;1.83;;;;;;;21.63;52.41;101624.81;5041427;28;20040;-85
2022/08/27 11:10:35;;;;;;;4.18;1.75;;;;;;;21.93;52.82;101623.28;5042187;28;20036;-89
2022/08/27 11:13:37;;;;;;;3.22;1.70;;;;;;;21.90;51.69;101629.34;5041691;28;20028;-84
2022/08/27 11:16:14;;;;;;;3.97;1.63;;;;;;;21.61;52.22;101624.25;5038960;28;20041;-86
2022/08/27 11:18:51;;;;;;;4.78;1.50;;;;;;;21.72;51.44;101631.47;5041398;28;20502;-86
2022/08/27 11:21:26;;;;;;;2.92;1.60;;;;;;;21.68;51.47;101626.78;5041944;28;20041;-87
2022/08/27 11:23:57;;;;;;;5.97;1.80;;;;;;;21.59;49.59;101629.19;5041606;28;20052;-87
2022/08/27 11:26:22;;;;;;;6.50;1.90;;;;;;;21.67;51.62;101620.41;5041273;28;20054;-86
2022/08/27 11:28:56;;;;;;;5.28;1.77;;;;;;;21.57;52.39;101631.41;5041825;28;20041;-85
2022/08/27 11:32:04;;;;;;;3.75;1.95;;;;;;;21.64;52.43;101620.97;5040929;28;20064;-87
2022/08/27 11:34:45;;;;;;;4.25;1.75;;;;;;;21.62;53.26;101617.63;5016778;28;20527;-84
2022/08/27 11:37:38;;;;;;;6.63;1.83;;;;;;;21.81;52.71;101617.16;5040670;28;20568;-86
2022/08/27 11:40:34;;;;;;;4.70;1.90;;;;;;;21.87;53.14;101624.38;5041519;28;20087;-86